<?xml version="1.0" encoding="UTF-8" standalone="no" ?><gpx xmlns="http://www.topografix.com/GPX/1/1" xmlns:gpxx="http://www.garmin.com/xmlschemas/GpxExtensions/v3" xmlns:wptx1="http://www.garmin.com/xmlschemas/WaypointExtension/v1" xmlns:gpxtpx="http://www.garmin.com/xmlschemas/TrackPointExtension/v1" creator="eTrex 30" version="1.1" xmlns:xsi="http://www.w3.org/2001/XMLSchema-instance" xsi:schemaLocation="http://www.topografix.com/GPX/1/1 http://www.topografix.com/GPX/1/1/gpx.xsd http://www.garmin.com/xmlschemas/GpxExtensions/v3 http://www8.garmin.com/xmlschemas/GpxExtensionsv3.xsd http://www.garmin.com/xmlschemas/WaypointExtension/v1 http://www8.garmin.com/xmlschemas/WaypointExtensionv1.xsd http://www.garmin.com/xmlschemas/TrackPointExtension/v1 http://www.garmin.com/xmlschemas/TrackPointExtensionv1.xsd"><metadata><link href="http://www.garmin.com"><text>Garmin International</text></link><time>2013-07-17T12:48:23Z</time></metadata><trk><name>DENSIDADES</name><extensions><gpxx:TrackExtension><gpxx:DisplayColor>Black</gpxx:DisplayColor></gpxx:TrackExtension></extensions><trkseg><trkpt lat="5.3222321626" lon="-72.2845733073"><ele>242.39</ele><time>2013-07-17T12:40:12Z</time></trkpt><trkpt lat="5.3222310729" lon="-72.2845748160"><ele>242.39</ele><time>2013-07-17T12:40:13Z</time></trkpt><trkpt lat="5.3221936896" lon="-72.2845684458"><ele>242.39</ele><time>2013-07-17T12:40:18Z</time></trkpt><trkpt lat="5.3221425600" lon="-72.2845410369"><ele>242.39</ele><time>2013-07-17T12:40:23Z</time></trkpt><trkpt lat="5.3221238684" lon="-72.2844790109"><ele>242.39</ele><time>2013-07-17T12:40:28Z</time></trkpt><trkpt lat="5.3221029136" lon="-72.2844145540"><ele>242.39</ele><time>2013-07-17T12:40:33Z</time></trkpt><trkpt lat="5.3220777679" lon="-72.2843486723"><ele>242.39</ele><time>2013-07-17T12:40:38Z</time></trkpt><trkpt lat="5.3220501076" lon="-72.2843020689"><ele>241.91</ele><time>2013-07-17T12:40:43Z</time></trkpt><trkpt lat="5.3219868243" lon="-72.2842970397"><ele>242.39</ele><time>2013-07-17T12:40:48Z</time></trkpt><trkpt lat="5.3219196014" lon="-72.2842815332"><ele>242.39</ele><time>2013-07-17T12:40:53Z</time></trkpt><trkpt lat="5.3218575753" lon="-72.2842684574"><ele>242.39</ele><time>2013-07-17T12:40:58Z</time></trkpt><trkpt lat="5.3218012489" lon="-72.2842620034"><ele>242.39</ele><time>2013-07-17T12:41:03Z</time></trkpt><trkpt lat="5.3217942920" lon="-72.2843059245"><ele>242.39</ele><time>2013-07-17T12:41:08Z</time></trkpt><trkpt lat="5.3218171746" lon="-72.2843708843"><ele>242.39</ele><time>2013-07-17T12:41:13Z</time></trkpt><trkpt lat="5.3218413144" lon="-72.2844303120"><ele>242.39</ele><time>2013-07-17T12:41:18Z</time></trkpt><trkpt lat="5.3218643647" lon="-72.2844824474"><ele>242.39</ele><time>2013-07-17T12:41:23Z</time></trkpt><trkpt lat="5.3219302464" lon="-72.2844960261"><ele>242.39</ele><time>2013-07-17T12:41:28Z</time></trkpt><trkpt lat="5.3219619300" lon="-72.2845443897"><ele>242.87</ele><time>2013-07-17T12:41:33Z</time></trkpt><trkpt lat="5.3219791129" lon="-72.2846118640"><ele>242.87</ele><time>2013-07-17T12:41:38Z</time></trkpt><trkpt lat="5.3220002353" lon="-72.2846867982"><ele>242.87</ele><time>2013-07-17T12:41:43Z</time></trkpt><trkpt lat="5.3220201842" lon="-72.2847521771"><ele>242.87</ele><time>2013-07-17T12:41:48Z</time></trkpt><trkpt lat="5.3219623491" lon="-72.2847530991"><ele>242.87</ele><time>2013-07-17T12:41:53Z</time></trkpt><trkpt lat="5.3218999039" lon="-72.2847427893"><ele>242.87</ele><time>2013-07-17T12:41:58Z</time></trkpt><trkpt lat="5.3218857385" lon="-72.2847834416"><ele>242.87</ele><time>2013-07-17T12:42:03Z</time></trkpt><trkpt lat="5.3218920249" lon="-72.2848390136"><ele>242.87</ele><time>2013-07-17T12:42:08Z</time></trkpt><trkpt lat="5.3219098784" lon="-72.2849030513"><ele>242.87</ele><time>2013-07-17T12:42:13Z</time></trkpt><trkpt lat="5.3219296597" lon="-72.2849640716"><ele>243.35</ele><time>2013-07-17T12:42:18Z</time></trkpt><trkpt lat="5.3219942842" lon="-72.2849930730"><ele>242.87</ele><time>2013-07-17T12:42:23Z</time></trkpt><trkpt lat="5.3220573161" lon="-72.2850043885"><ele>243.35</ele><time>2013-07-17T12:42:28Z</time></trkpt><trkpt lat="5.3221242875" lon="-72.2850175481"><ele>243.35</ele><time>2013-07-17T12:42:33Z</time></trkpt><trkpt lat="5.3221858107" lon="-72.2850070707"><ele>243.35</ele><time>2013-07-17T12:42:38Z</time></trkpt><trkpt lat="5.3221888281" lon="-72.2849522531"><ele>242.87</ele><time>2013-07-17T12:42:43Z</time></trkpt><trkpt lat="5.3221817873" lon="-72.2849375848"><ele>243.35</ele><time>2013-07-17T12:42:48Z</time></trkpt><trkpt lat="5.3221711423" lon="-72.2848996148"><ele>242.87</ele><time>2013-07-17T12:42:53Z</time></trkpt><trkpt lat="5.3221513610" lon="-72.2848376725"><ele>242.87</ele><time>2013-07-17T12:42:58Z</time></trkpt><trkpt lat="5.3221600782" lon="-72.2847889736"><ele>243.35</ele><time>2013-07-17T12:43:03Z</time></trkpt><trkpt lat="5.3222210985" lon="-72.2848053183"><ele>242.87</ele><time>2013-07-17T12:43:08Z</time></trkpt><trkpt lat="5.3222843818" lon="-72.2848183941"><ele>242.87</ele><time>2013-07-17T12:43:13Z</time></trkpt><trkpt lat="5.3222943563" lon="-72.2847556975"><ele>242.87</ele><time>2013-07-17T12:43:18Z</time></trkpt><trkpt lat="5.3222729824" lon="-72.2846958507"><ele>242.87</ele><time>2013-07-17T12:43:23Z</time></trkpt><trkpt lat="5.3222515248" lon="-72.2846331540"><ele>242.87</ele><time>2013-07-17T12:43:28Z</time></trkpt><trkpt lat="5.3222295642" lon="-72.2845790908"><ele>242.87</ele><time>2013-07-17T12:43:33Z</time></trkpt><trkpt lat="5.3222261276" lon="-72.2845714632"><ele>242.87</ele><time>2013-07-17T12:43:38Z</time></trkpt><trkpt lat="5.3222247027" lon="-72.2845693678"><ele>242.87</ele><time>2013-07-17T12:43:40Z</time></trkpt></trkseg></trk></gpx>